sensor_id;sensor_type;location;lat;lon;timestamp;P1;durP1;ratioP1;P2;durP2;ratioP2
77298;SDS011;66361;52.034;20.656;2023-02-14T00:01:44;16.88;;;10.02;;
77298;SDS011;66361;52.034;20.656;2023-02-14T00:05:50;9.38;;;6.57;;
77298;SDS011;66361;52.034;20.656;2023-02-14T00:09:54;10.15;;;6.78;;
77298;SDS011;66361;52.034;20.656;2023-02-14T00:13:58;8.82;;;6.22;;
77298;SDS011;66361;52.034;20.656;2023-02-14T00:18:18;8.30;;;6.13;;
77298;SDS011;66361;52.034;20.656;2023-02-14T00:22:44;14.05;;;7.57;;
77298;SDS011;66361;52.034;20.656;2023-02-14T00:26:49;10.20;;;7.53;;
77298;SDS011;66361;52.034;20.656;2023-02-14T00:30:55;11.27;;;6.95;;
77298;SDS011;66361;52.034;20.656;2023-02-14T00:35:02;8.50;;;6.28;;
77298;SDS011;66361;52.034;20.656;2023-02-14T00:39:06;12.30;;;7.05;;
77298;SDS011;66361;52.034;20.656;2023-02-14T00:43:15;10.45;;;7.20;;
77298;SDS011;66361;52.034;20.656;2023-02-14T00:47:23;14.00;;;7.25;;
77298;SDS011;66361;52.034;20.656;2023-02-14T00:51:26;7.38;;;5.75;;
77298;SDS011;66361;52.034;20.656;2023-02-14T00:55:29;8.55;;;6.32;;
77298;SDS011;66361;52.034;20.656;2023-02-14T00:59:36;8.82;;;5.90;;
77298;SDS011;66361;52.034;20.656;2023-02-14T01:03:39;11.88;;;6.57;;
77298;SDS011;66361;52.034;20.656;2023-02-14T01:07:43;8.00;;;5.30;;
77298;SDS011;66361;52.034;20.656;2023-02-14T01:11:46;11.20;;;6.97;;
77298;SDS011;66361;52.034;20.656;2023-02-14T01:15:51;12.90;;;7.30;;
77298;SDS011;66361;52.034;20.656;2023-02-14T01:19:55;11.82;;;7.63;;
77298;SDS011;66361;52.034;20.656;2023-02-14T01:23:58;8.55;;;6.20;;
77298;SDS011;66361;52.034;20.656;2023-02-14T01:28:03;13.07;;;6.70;;
77298;SDS011;66361;52.034;20.656;2023-02-14T01:32:07;14.15;;;7.80;;
77298;SDS011;66361;52.034;20.656;2023-02-14T01:36:14;8.60;;;6.30;;
77298;SDS011;66361;52.034;20.656;2023-02-14T01:40:20;14.15;;;7.63;;
77298;SDS011;66361;52.034;20.656;2023-02-14T01:49:01;13.50;;;7.45;;
77298;SDS011;66361;52.034;20.656;2023-02-14T01:53:07;14.23;;;7.43;;
77298;SDS011;66361;52.034;20.656;2023-02-14T01:57:13;11.00;;;5.68;;
77298;SDS011;66361;52.034;20.656;2023-02-14T02:01:21;12.50;;;7.18;;
77298;SDS011;66361;52.034;20.656;2023-02-14T02:05:29;13.00;;;7.82;;
77298;SDS011;66361;52.034;20.656;2023-02-14T02:09:32;15.93;;;8.63;;
77298;SDS011;66361;52.034;20.656;2023-02-14T02:13:38;12.50;;;7.75;;
77298;SDS011;66361;52.034;20.656;2023-02-14T02:17:46;15.23;;;7.45;;
77298;SDS011;66361;52.034;20.656;2023-02-14T02:22:02;19.27;;;8.70;;
77298;SDS011;66361;52.034;20.656;2023-02-14T02:26:34;14.30;;;7.45;;
77298;SDS011;66361;52.034;20.656;2023-02-14T02:31:07;12.90;;;8.18;;
77298;SDS011;66361;52.034;20.656;2023-02-14T02:39:56;17.50;;;10.00;;
77298;SDS011;66361;52.034;20.656;2023-02-14T02:44:14;15.93;;;8.40;;
77298;SDS011;66361;52.034;20.656;2023-02-14T02:48:21;17.95;;;9.85;;
77298;SDS011;66361;52.034;20.656;2023-02-14T02:52:34;11.75;;;7.75;;
77298;SDS011;66361;52.034;20.656;2023-02-14T02:56:59;15.15;;;9.40;;
77298;SDS011;66361;52.034;20.656;2023-02-14T03:01:07;9.80;;;7.32;;
77298;SDS011;66361;52.034;20.656;2023-02-14T03:05:13;13.52;;;8.40;;
77298;SDS011;66361;52.034;20.656;2023-02-14T03:14:02;17.15;;;8.55;;
77298;SDS011;66361;52.034;20.656;2023-02-14T03:18:17;14.63;;;9.20;;
77298;SDS011;66361;52.034;20.656;2023-02-14T03:22:42;17.33;;;9.25;;
77298;SDS011;66361;52.034;20.656;2023-02-14T03:26:53;10.60;;;6.93;;
77298;SDS011;66361;52.034;20.656;2023-02-14T03:31:02;11.98;;;8.10;;
77298;SDS011;66361;52.034;20.656;2023-02-14T03:35:11;17.40;;;10.50;;
77298;SDS011;66361;52.034;20.656;2023-02-14T03:39:22;14.07;;;10.43;;
77298;SDS011;66361;52.034;20.656;2023-02-14T03:43:32;16.85;;;9.48;;
77298;SDS011;66361;52.034;20.656;2023-02-14T03:47:38;15.35;;;9.60;;
77298;SDS011;66361;52.034;20.656;2023-02-14T03:51:46;14.80;;;9.32;;
77298;SDS011;66361;52.034;20.656;2023-02-14T03:55:57;12.98;;;9.73;;
77298;SDS011;66361;52.034;20.656;2023-02-14T04:00:06;19.45;;;12.52;;
77298;SDS011;66361;52.034;20.656;2023-02-14T04:04:11;12.38;;;7.32;;
77298;SDS011;66361;52.034;20.656;2023-02-14T04:08:19;11.52;;;7.28;;
77298;SDS011;66361;52.034;20.656;2023-02-14T04:12:26;15.05;;;9.77;;
77298;SDS011;66361;52.034;20.656;2023-02-14T04:16:39;15.45;;;9.65;;
77298;SDS011;66361;52.034;20.656;2023-02-14T04:20:55;7.95;;;5.55;;
77298;SDS011;66361;52.034;20.656;2023-02-14T04:24:59;14.40;;;8.43;;
77298;SDS011;66361;52.034;20.656;2023-02-14T04:29:03;15.05;;;10.10;;
77298;SDS011;66361;52.034;20.656;2023-02-14T04:33:07;16.10;;;9.52;;
77298;SDS011;66361;52.034;20.656;2023-02-14T04:37:11;20.23;;;9.38;;
77298;SDS011;66361;52.034;20.656;2023-02-14T04:41:15;15.40;;;10.05;;
77298;SDS011;66361;52.034;20.656;2023-02-14T04:45:18;19.25;;;11.55;;
77298;SDS011;66361;52.034;20.656;2023-02-14T04:49:23;11.48;;;8.80;;
77298;SDS011;66361;52.034;20.656;2023-02-14T04:53:26;18.13;;;10.55;;
77298;SDS011;66361;52.034;20.656;2023-02-14T04:57:31;13.07;;;8.20;;
77298;SDS011;66361;52.034;20.656;2023-02-14T05:01:35;18.00;;;10.80;;
77298;SDS011;66361;52.034;20.656;2023-02-14T05:05:40;21.00;;;13.05;;
77298;SDS011;66361;52.034;20.656;2023-02-14T05:09:44;17.50;;;10.20;;
77298;SDS011;66361;52.034;20.656;2023-02-14T05:13:49;15.18;;;9.75;;
77298;SDS011;66361;52.034;20.656;2023-02-14T05:17:54;14.48;;;8.98;;
77298;SDS011;66361;52.034;20.656;2023-02-14T05:22:03;16.70;;;10.90;;
77298;SDS011;66361;52.034;20.656;2023-02-14T05:26:06;23.13;;;12.70;;
77298;SDS011;66361;52.034;20.656;2023-02-14T05:30:10;16.02;;;10.98;;
77298;SDS011;66361;52.034;20.656;2023-02-14T05:34:15;14.68;;;10.32;;
77298;SDS011;66361;52.034;20.656;2023-02-14T05:38:20;19.40;;;9.93;;
77298;SDS011;66361;52.034;20.656;2023-02-14T05:42:23;16.75;;;10.13;;
77298;SDS011;66361;52.034;20.656;2023-02-14T05:46:27;17.25;;;10.65;;
77298;SDS011;66361;52.034;20.656;2023-02-14T05:50:30;17.02;;;11.90;;
77298;SDS011;66361;52.034;20.656;2023-02-14T05:54:35;17.75;;;10.57;;
77298;SDS011;66361;52.034;20.656;2023-02-14T05:58:38;18.63;;;10.55;;
77298;SDS011;66361;52.034;20.656;2023-02-14T06:02:41;22.05;;;10.90;;
77298;SDS011;66361;52.034;20.656;2023-02-14T06:06:44;19.77;;;10.07;;
77298;SDS011;66361;52.034;20.656;2023-02-14T06:10:49;20.73;;;10.85;;
77298;SDS011;66361;52.034;20.656;2023-02-14T06:14:52;19.05;;;8.73;;
77298;SDS011;66361;52.034;20.656;2023-02-14T06:18:55;17.50;;;10.15;;
77298;SDS011;66361;52.034;20.656;2023-02-14T06:22:59;17.55;;;9.88;;
77298;SDS011;66361;52.034;20.656;2023-02-14T06:27:04;22.17;;;10.48;;
77298;SDS011;66361;52.034;20.656;2023-02-14T06:31:07;20.65;;;11.27;;
77298;SDS011;66361;52.034;20.656;2023-02-14T06:35:16;18.77;;;10.23;;
77298;SDS011;66361;52.034;20.656;2023-02-14T06:39:19;16.30;;;8.32;;
77298;SDS011;66361;52.034;20.656;2023-02-14T06:43:25;20.10;;;10.48;;
77298;SDS011;66361;52.034;20.656;2023-02-14T06:47:28;18.33;;;8.93;;
77298;SDS011;66361;52.034;20.656;2023-02-14T06:51:34;20.30;;;9.75;;
77298;SDS011;66361;52.034;20.656;2023-02-14T06:55:37;8.50;;;5.35;;
77298;SDS011;66361;52.034;20.656;2023-02-14T06:59:45;18.92;;;9.82;;
77298;SDS011;66361;52.034;20.656;2023-02-14T07:03:48;10.45;;;6.70;;
77298;SDS011;66361;52.034;20.656;2023-02-14T07:07:51;23.40;;;11.98;;
77298;SDS011;66361;52.034;20.656;2023-02-14T07:11:55;6.18;;;4.30;;
77298;SDS011;66361;52.034;20.656;2023-02-14T07:15:59;15.57;;;8.82;;
77298;SDS011;66361;52.034;20.656;2023-02-14T07:20:03;18.33;;;9.82;;
77298;SDS011;66361;52.034;20.656;2023-02-14T07:24:07;22.25;;;12.73;;
77298;SDS011;66361;52.034;20.656;2023-02-14T07:28:13;21.58;;;11.15;;
77298;SDS011;66361;52.034;20.656;2023-02-14T07:32:18;16.10;;;8.50;;
77298;SDS011;66361;52.034;20.656;2023-02-14T07:36:21;32.38;;;12.50;;
77298;SDS011;66361;52.034;20.656;2023-02-14T07:40:30;20.55;;;11.68;;
77298;SDS011;66361;52.034;20.656;2023-02-14T07:44:33;26.48;;;13.05;;
77298;SDS011;66361;52.034;20.656;2023-02-14T07:49:06;23.40;;;11.57;;
77298;SDS011;66361;52.034;20.656;2023-02-14T07:53:10;23.73;;;12.52;;
77298;SDS011;66361;52.034;20.656;2023-02-14T07:57:17;22.08;;;11.88;;
77298;SDS011;66361;52.034;20.656;2023-02-14T08:01:20;26.15;;;11.63;;
77298;SDS011;66361;52.034;20.656;2023-02-14T08:05:24;26.90;;;11.07;;
77298;SDS011;66361;52.034;20.656;2023-02-14T08:09:29;22.98;;;12.45;;
77298;SDS011;66361;52.034;20.656;2023-02-14T08:13:33;13.82;;;8.60;;
77298;SDS011;66361;52.034;20.656;2023-02-14T08:17:37;22.63;;;11.20;;
77298;SDS011;66361;52.034;20.656;2023-02-14T08:21:41;19.02;;;9.93;;
77298;SDS011;66361;52.034;20.656;2023-02-14T08:25:44;18.40;;;10.25;;
77298;SDS011;66361;52.034;20.656;2023-02-14T08:29:47;23.25;;;10.48;;
77298;SDS011;66361;52.034;20.656;2023-02-14T08:33:50;23.77;;;12.32;;
77298;SDS011;66361;52.034;20.656;2023-02-14T08:37:55;23.52;;;12.45;;
77298;SDS011;66361;52.034;20.656;2023-02-14T08:41:58;23.30;;;9.35;;
77298;SDS011;66361;52.034;20.656;2023-02-14T08:46:03;21.35;;;10.80;;
77298;SDS011;66361;52.034;20.656;2023-02-14T08:50:10;21.00;;;10.57;;
77298;SDS011;66361;52.034;20.656;2023-02-14T08:54:16;21.02;;;11.93;;
77298;SDS011;66361;52.034;20.656;2023-02-14T08:58:20;22.45;;;10.05;;
77298;SDS011;66361;52.034;20.656;2023-02-14T09:02:23;20.90;;;12.88;;
77298;SDS011;66361;52.034;20.656;2023-02-14T09:06:27;18.63;;;11.25;;
77298;SDS011;66361;52.034;20.656;2023-02-14T09:10:35;23.90;;;12.43;;
77298;SDS011;66361;52.034;20.656;2023-02-14T09:14:40;21.50;;;10.60;;
77298;SDS011;66361;52.034;20.656;2023-02-14T09:18:45;19.40;;;12.48;;
77298;SDS011;66361;52.034;20.656;2023-02-14T09:22:49;22.23;;;11.68;;
77298;SDS011;66361;52.034;20.656;2023-02-14T09:26:54;14.20;;;9.80;;
77298;SDS011;66361;52.034;20.656;2023-02-14T09:30:58;18.15;;;9.25;;
77298;SDS011;66361;52.034;20.656;2023-02-14T09:35:10;23.05;;;12.00;;
77298;SDS011;66361;52.034;20.656;2023-02-14T09:39:31;25.65;;;13.27;;
77298;SDS011;66361;52.034;20.656;2023-02-14T09:43:40;27.23;;;13.18;;
77298;SDS011;66361;52.034;20.656;2023-02-14T09:47:51;23.45;;;11.35;;
77298;SDS011;66361;52.034;20.656;2023-02-14T09:52:00;15.27;;;8.93;;
77298;SDS011;66361;52.034;20.656;2023-02-14T09:56:08;21.38;;;11.35;;
77298;SDS011;66361;52.034;20.656;2023-02-14T10:00:21;17.30;;;10.02;;
77298;SDS011;66361;52.034;20.656;2023-02-14T10:04:31;17.33;;;9.88;;
77298;SDS011;66361;52.034;20.656;2023-02-14T10:08:43;24.65;;;12.40;;
77298;SDS011;66361;52.034;20.656;2023-02-14T10:12:59;22.85;;;11.27;;
77298;SDS011;66361;52.034;20.656;2023-02-14T10:17:12;10.05;;;6.60;;
77298;SDS011;66361;52.034;20.656;2023-02-14T10:21:20;13.70;;;8.07;;
77298;SDS011;66361;52.034;20.656;2023-02-14T10:25:27;20.30;;;11.20;;
77298;SDS011;66361;52.034;20.656;2023-02-14T10:29:36;30.50;;;11.30;;
77298;SDS011;66361;52.034;20.656;2023-02-14T10:33:44;30.40;;;14.23;;
77298;SDS011;66361;52.034;20.656;2023-02-14T10:42:09;24.10;;;11.07;;
77298;SDS011;66361;52.034;20.656;2023-02-14T10:46:24;29.50;;;13.15;;
77298;SDS011;66361;52.034;20.656;2023-02-14T10:50:38;33.88;;;17.48;;
77298;SDS011;66361;52.034;20.656;2023-02-14T10:54:50;16.40;;;9.13;;
77298;SDS011;66361;52.034;20.656;2023-02-14T10:58:56;24.42;;;11.68;;
77298;SDS011;66361;52.034;20.656;2023-02-14T11:03:05;22.33;;;11.55;;
77298;SDS011;66361;52.034;20.656;2023-02-14T11:07:13;22.88;;;12.35;;
77298;SDS011;66361;52.034;20.656;2023-02-14T11:11:17;25.23;;;12.82;;
77298;SDS011;66361;52.034;20.656;2023-02-14T11:15:30;13.35;;;7.57;;
77298;SDS011;66361;52.034;20.656;2023-02-14T11:19:37;22.25;;;9.82;;
77298;SDS011;66361;52.034;20.656;2023-02-14T11:23:42;26.00;;;13.32;;
77298;SDS011;66361;52.034;20.656;2023-02-14T11:27:47;23.50;;;12.00;;
77298;SDS011;66361;52.034;20.656;2023-02-14T11:32:04;25.00;;;12.13;;
77298;SDS011;66361;52.034;20.656;2023-02-14T11:36:10;21.10;;;10.45;;
77298;SDS011;66361;52.034;20.656;2023-02-14T11:40:26;25.48;;;12.13;;
77298;SDS011;66361;52.034;20.656;2023-02-14T11:44:33;25.35;;;12.48;;
77298;SDS011;66361;52.034;20.656;2023-02-14T11:52:56;27.95;;;13.43;;
77298;SDS011;66361;52.034;20.656;2023-02-14T11:57:02;18.95;;;10.75;;
77298;SDS011;66361;52.034;20.656;2023-02-14T12:01:09;28.48;;;14.02;;
77298;SDS011;66361;52.034;20.656;2023-02-14T12:05:22;21.88;;;12.02;;
77298;SDS011;66361;52.034;20.656;2023-02-14T12:09:29;23.60;;;12.85;;
77298;SDS011;66361;52.034;20.656;2023-02-14T12:13:37;26.88;;;11.60;;
77298;SDS011;66361;52.034;20.656;2023-02-14T12:17:40;21.48;;;11.25;;
77298;SDS011;66361;52.034;20.656;2023-02-14T12:21:50;21.00;;;10.38;;
77298;SDS011;66361;52.034;20.656;2023-02-14T12:25:59;36.20;;;12.85;;
77298;SDS011;66361;52.034;20.656;2023-02-14T12:30:10;20.17;;;11.30;;
77298;SDS011;66361;52.034;20.656;2023-02-14T12:34:18;22.88;;;13.40;;
77298;SDS011;66361;52.034;20.656;2023-02-14T12:42:36;25.17;;;13.02;;
77298;SDS011;66361;52.034;20.656;2023-02-14T12:47:02;26.70;;;13.73;;
77298;SDS011;66361;52.034;20.656;2023-02-14T12:51:17;23.75;;;12.18;;
77298;SDS011;66361;52.034;20.656;2023-02-14T12:55:33;29.20;;;13.38;;
77298;SDS011;66361;52.034;20.656;2023-02-14T12:59:44;24.52;;;11.15;;
77298;SDS011;66361;52.034;20.656;2023-02-14T13:04:13;23.42;;;12.70;;
77298;SDS011;66361;52.034;20.656;2023-02-14T13:08:31;16.17;;;9.75;;
77298;SDS011;66361;52.034;20.656;2023-02-14T13:12:50;24.92;;;12.32;;
77298;SDS011;66361;52.034;20.656;2023-02-14T13:17:02;16.85;;;8.77;;
77298;SDS011;66361;52.034;20.656;2023-02-14T13:21:16;21.20;;;12.93;;
77298;SDS011;66361;52.034;20.656;2023-02-14T13:25:24;13.20;;;8.57;;
77298;SDS011;66361;52.034;20.656;2023-02-14T13:29:33;21.20;;;9.38;;
77298;SDS011;66361;52.034;20.656;2023-02-14T13:33:47;20.45;;;10.90;;
77298;SDS011;66361;52.034;20.656;2023-02-14T13:37:56;23.52;;;13.57;;
77298;SDS011;66361;52.034;20.656;2023-02-14T13:42:02;20.75;;;12.00;;
77298;SDS011;66361;52.034;20.656;2023-02-14T13:46:06;25.15;;;14.20;;
77298;SDS011;66361;52.034;20.656;2023-02-14T13:50:16;24.48;;;11.15;;
77298;SDS011;66361;52.034;20.656;2023-02-14T13:54:31;25.95;;;11.90;;
77298;SDS011;66361;52.034;20.656;2023-02-14T13:58:44;23.70;;;11.52;;
77298;SDS011;66361;52.034;20.656;2023-02-14T14:02:49;23.80;;;13.32;;
77298;SDS011;66361;52.034;20.656;2023-02-14T14:20:29;23.48;;;11.82;;
77298;SDS011;66361;52.034;20.656;2023-02-14T14:24:54;26.77;;;14.02;;
77298;SDS011;66361;52.034;20.656;2023-02-14T14:29:01;18.42;;;10.48;;
77298;SDS011;66361;52.034;20.656;2023-02-14T14:33:11;26.83;;;14.13;;
77298;SDS011;66361;52.034;20.656;2023-02-14T14:37:18;24.58;;;11.32;;
77298;SDS011;66361;52.034;20.656;2023-02-14T14:41:26;20.13;;;9.77;;
77298;SDS011;66361;52.034;20.656;2023-02-14T14:45:34;25.65;;;13.20;;
77298;SDS011;66361;52.034;20.656;2023-02-14T14:49:41;27.02;;;11.77;;
77298;SDS011;66361;52.034;20.656;2023-02-14T14:53:46;21.45;;;13.13;;
77298;SDS011;66361;52.034;20.656;2023-02-14T14:57:53;21.30;;;10.98;;
77298;SDS011;66361;52.034;20.656;2023-02-14T15:02:00;27.45;;;12.90;;
77298;SDS011;66361;52.034;20.656;2023-02-14T15:06:05;28.48;;;13.40;;
77298;SDS011;66361;52.034;20.656;2023-02-14T15:10:21;17.60;;;9.15;;
77298;SDS011;66361;52.034;20.656;2023-02-14T15:14:31;25.77;;;13.15;;
77298;SDS011;66361;52.034;20.656;2023-02-14T15:18:38;22.00;;;10.85;;
77298;SDS011;66361;52.034;20.656;2023-02-14T15:22:42;29.05;;;11.70;;
77298;SDS011;66361;52.034;20.656;2023-02-14T15:26:47;17.27;;;9.63;;
77298;SDS011;66361;52.034;20.656;2023-02-14T15:30:57;20.48;;;11.80;;
77298;SDS011;66361;52.034;20.656;2023-02-14T15:35:09;27.92;;;12.93;;
77298;SDS011;66361;52.034;20.656;2023-02-14T15:39:19;24.73;;;13.75;;
77298;SDS011;66361;52.034;20.656;2023-02-14T15:43:29;26.05;;;11.95;;
77298;SDS011;66361;52.034;20.656;2023-02-14T15:47:36;21.88;;;12.35;;
77298;SDS011;66361;52.034;20.656;2023-02-14T15:51:43;26.15;;;12.50;;
77298;SDS011;66361;52.034;20.656;2023-02-14T15:55:46;26.38;;;14.32;;
77298;SDS011;66361;52.034;20.656;2023-02-14T15:59:51;26.08;;;12.32;;
77298;SDS011;66361;52.034;20.656;2023-02-14T16:03:56;31.63;;;16.45;;
77298;SDS011;66361;52.034;20.656;2023-02-14T16:08:04;29.98;;;15.40;;
77298;SDS011;66361;52.034;20.656;2023-02-14T16:21:08;27.85;;;14.55;;
77298;SDS011;66361;52.034;20.656;2023-02-14T16:25:19;25.33;;;14.02;;
77298;SDS011;66361;52.034;20.656;2023-02-14T16:29:23;29.98;;;17.25;;
77298;SDS011;66361;52.034;20.656;2023-02-14T16:33:26;30.05;;;15.60;;
77298;SDS011;66361;52.034;20.656;2023-02-14T16:37:32;26.60;;;14.23;;
77298;SDS011;66361;52.034;20.656;2023-02-14T16:45:44;26.38;;;12.25;;
77298;SDS011;66361;52.034;20.656;2023-02-14T16:49:48;34.22;;;14.90;;
77298;SDS011;66361;52.034;20.656;2023-02-14T16:53:53;30.30;;;13.90;;
77298;SDS011;66361;52.034;20.656;2023-02-14T16:58:02;35.35;;;16.80;;
77298;SDS011;66361;52.034;20.656;2023-02-14T17:02:05;20.17;;;12.18;;
77298;SDS011;66361;52.034;20.656;2023-02-14T17:06:12;30.42;;;16.70;;
77298;SDS011;66361;52.034;20.656;2023-02-14T17:10:22;32.65;;;17.42;;
77298;SDS011;66361;52.034;20.656;2023-02-14T17:14:27;29.75;;;16.55;;
77298;SDS011;66361;52.034;20.656;2023-02-14T17:22:38;28.65;;;12.68;;
77298;SDS011;66361;52.034;20.656;2023-02-14T17:26:45;26.50;;;15.63;;
77298;SDS011;66361;52.034;20.656;2023-02-14T17:30:50;32.33;;;16.13;;
77298;SDS011;66361;52.034;20.656;2023-02-14T17:34:54;32.08;;;16.27;;
77298;SDS011;66361;52.034;20.656;2023-02-14T17:38:58;26.77;;;15.30;;
77298;SDS011;66361;52.034;20.656;2023-02-14T17:43:01;27.15;;;12.93;;
77298;SDS011;66361;52.034;20.656;2023-02-14T17:47:09;27.67;;;14.32;;
77298;SDS011;66361;52.034;20.656;2023-02-14T17:51:16;27.88;;;16.17;;
77298;SDS011;66361;52.034;20.656;2023-02-14T17:55:20;25.48;;;15.07;;
77298;SDS011;66361;52.034;20.656;2023-02-14T17:59:26;31.35;;;15.57;;
77298;SDS011;66361;52.034;20.656;2023-02-14T18:03:31;25.75;;;14.65;;
77298;SDS011;66361;52.034;20.656;2023-02-14T18:07:38;27.20;;;16.67;;
77298;SDS011;66361;52.034;20.656;2023-02-14T18:11:43;29.73;;;16.17;;
77298;SDS011;66361;52.034;20.656;2023-02-14T18:15:53;28.80;;;15.07;;
77298;SDS011;66361;52.034;20.656;2023-02-14T18:20:02;30.42;;;15.23;;
77298;SDS011;66361;52.034;20.656;2023-02-14T18:24:06;30.45;;;16.70;;
77298;SDS011;66361;52.034;20.656;2023-02-14T18:28:10;31.00;;;16.55;;
77298;SDS011;66361;52.034;20.656;2023-02-14T18:32:14;30.30;;;16.73;;
77298;SDS011;66361;52.034;20.656;2023-02-14T18:36:22;31.10;;;16.52;;
77298;SDS011;66361;52.034;20.656;2023-02-14T18:40:26;30.50;;;17.05;;
77298;SDS011;66361;52.034;20.656;2023-02-14T18:44:29;31.27;;;15.95;;
77298;SDS011;66361;52.034;20.656;2023-02-14T18:48:34;28.98;;;14.07;;
77298;SDS011;66361;52.034;20.656;2023-02-14T18:52:40;29.50;;;15.40;;
77298;SDS011;66361;52.034;20.656;2023-02-14T18:56:45;31.10;;;15.45;;
77298;SDS011;66361;52.034;20.656;2023-02-14T19:00:48;34.53;;;17.55;;
77298;SDS011;66361;52.034;20.656;2023-02-14T19:04:52;32.75;;;16.30;;
77298;SDS011;66361;52.034;20.656;2023-02-14T19:08:56;29.75;;;16.30;;
77298;SDS011;66361;52.034;20.656;2023-02-14T19:13:00;26.63;;;15.00;;
77298;SDS011;66361;52.034;20.656;2023-02-14T19:17:06;31.45;;;16.85;;
77298;SDS011;66361;52.034;20.656;2023-02-14T19:21:10;33.45;;;18.08;;
77298;SDS011;66361;52.034;20.656;2023-02-14T19:25:16;18.63;;;10.73;;
77298;SDS011;66361;52.034;20.656;2023-02-14T19:29:19;34.50;;;16.45;;
77298;SDS011;66361;52.034;20.656;2023-02-14T19:33:23;36.95;;;18.88;;
77298;SDS011;66361;52.034;20.656;2023-02-14T19:37:26;30.23;;;16.42;;
77298;SDS011;66361;52.034;20.656;2023-02-14T19:41:32;39.08;;;25.73;;
77298;SDS011;66361;52.034;20.656;2023-02-14T19:45:36;26.77;;;15.05;;
77298;SDS011;66361;52.034;20.656;2023-02-14T19:49:40;33.95;;;17.40;;
77298;SDS011;66361;52.034;20.656;2023-02-14T19:53:46;29.95;;;14.95;;
77298;SDS011;66361;52.034;20.656;2023-02-14T19:57:51;32.58;;;17.13;;
77298;SDS011;66361;52.034;20.656;2023-02-14T20:01:54;25.15;;;14.35;;
77298;SDS011;66361;52.034;20.656;2023-02-14T20:05:58;30.50;;;15.80;;
77298;SDS011;66361;52.034;20.656;2023-02-14T20:10:03;29.60;;;15.95;;
77298;SDS011;66361;52.034;20.656;2023-02-14T20:14:11;32.15;;;17.05;;
77298;SDS011;66361;52.034;20.656;2023-02-14T20:18:18;40.10;;;23.38;;
77298;SDS011;66361;52.034;20.656;2023-02-14T20:22:24;30.75;;;16.75;;
77298;SDS011;66361;52.034;20.656;2023-02-14T20:30:34;41.55;;;24.63;;
77298;SDS011;66361;52.034;20.656;2023-02-14T20:34:42;30.20;;;15.32;;
77298;SDS011;66361;52.034;20.656;2023-02-14T20:38:46;37.33;;;17.75;;
77298;SDS011;66361;52.034;20.656;2023-02-14T20:42:49;32.30;;;18.27;;
77298;SDS011;66361;52.034;20.656;2023-02-14T20:50:57;29.88;;;15.00;;
77298;SDS011;66361;52.034;20.656;2023-02-14T20:55:09;31.02;;;17.92;;
77298;SDS011;66361;52.034;20.656;2023-02-14T20:59:12;32.58;;;18.67;;
77298;SDS011;66361;52.034;20.656;2023-02-14T21:03:18;33.45;;;18.40;;
77298;SDS011;66361;52.034;20.656;2023-02-14T21:07:24;39.13;;;21.05;;
77298;SDS011;66361;52.034;20.656;2023-02-14T21:11:31;35.72;;;18.20;;
77298;SDS011;66361;52.034;20.656;2023-02-14T21:15:37;38.80;;;16.25;;
77298;SDS011;66361;52.034;20.656;2023-02-14T21:19:46;35.35;;;17.10;;
77298;SDS011;66361;52.034;20.656;2023-02-14T21:23:55;38.35;;;19.25;;
77298;SDS011;66361;52.034;20.656;2023-02-14T21:27:58;32.38;;;14.85;;
77298;SDS011;66361;52.034;20.656;2023-02-14T21:32:04;38.85;;;21.25;;
77298;SDS011;66361;52.034;20.656;2023-02-14T21:36:11;36.83;;;18.23;;
77298;SDS011;66361;52.034;20.656;2023-02-14T21:40:18;38.17;;;18.40;;
77298;SDS011;66361;52.034;20.656;2023-02-14T21:44:26;33.42;;;16.58;;
77298;SDS011;66361;52.034;20.656;2023-02-14T21:48:47;35.22;;;16.77;;
77298;SDS011;66361;52.034;20.656;2023-02-14T21:53:08;34.92;;;17.65;;
77298;SDS011;66361;52.034;20.656;2023-02-14T21:57:11;34.85;;;16.65;;
77298;SDS011;66361;52.034;20.656;2023-02-14T22:01:15;33.80;;;17.23;;
77298;SDS011;66361;52.034;20.656;2023-02-14T22:05:21;33.45;;;17.40;;
77298;SDS011;66361;52.034;20.656;2023-02-14T22:09:25;33.13;;;18.13;;
77298;SDS011;66361;52.034;20.656;2023-02-14T22:13:29;41.22;;;17.50;;
77298;SDS011;66361;52.034;20.656;2023-02-14T22:17:34;39.75;;;19.23;;
77298;SDS011;66361;52.034;20.656;2023-02-14T22:21:37;38.45;;;18.30;;
77298;SDS011;66361;52.034;20.656;2023-02-14T22:25:42;45.17;;;22.95;;
77298;SDS011;66361;52.034;20.656;2023-02-14T22:29:45;31.10;;;15.73;;
77298;SDS011;66361;52.034;20.656;2023-02-14T22:33:50;40.38;;;22.55;;
77298;SDS011;66361;52.034;20.656;2023-02-14T22:37:54;40.88;;;18.15;;
77298;SDS011;66361;52.034;20.656;2023-02-14T22:42:01;44.90;;;17.60;;
77298;SDS011;66361;52.034;20.656;2023-02-14T22:46:07;42.65;;;19.80;;
77298;SDS011;66361;52.034;20.656;2023-02-14T22:50:12;39.08;;;16.52;;
77298;SDS011;66361;52.034;20.656;2023-02-14T22:54:15;33.60;;;16.02;;
77298;SDS011;66361;52.034;20.656;2023-02-14T22:58:20;39.50;;;19.48;;
77298;SDS011;66361;52.034;20.656;2023-02-14T23:02:26;40.83;;;18.20;;
77298;SDS011;66361;52.034;20.656;2023-02-14T23:06:31;37.67;;;18.27;;
77298;SDS011;66361;52.034;20.656;2023-02-14T23:10:35;34.20;;;16.88;;
77298;SDS011;66361;52.034;20.656;2023-02-14T23:14:40;32.17;;;16.95;;
77298;SDS011;66361;52.034;20.656;2023-02-14T23:19:00;36.00;;;16.55;;
77298;SDS011;66361;52.034;20.656;2023-02-14T23:23:21;35.58;;;16.55;;
77298;SDS011;66361;52.034;20.656;2023-02-14T23:31:32;38.17;;;17.75;;
77298;SDS011;66361;52.034;20.656;2023-02-14T23:35:37;36.33;;;17.52;;
77298;SDS011;66361;52.034;20.656;2023-02-14T23:39:40;33.45;;;16.45;;
77298;SDS011;66361;52.034;20.656;2023-02-14T23:43:45;36.35;;;16.63;;
77298;SDS011;66361;52.034;20.656;2023-02-14T23:47:51;38.92;;;17.85;;
77298;SDS011;66361;52.034;20.656;2023-02-14T23:51:55;32.70;;;16.50;;
77298;SDS011;66361;52.034;20.656;2023-02-14T23:56:02;37.28;;;17.58;;
